sensor_id;sensor_type;location;lat;lon;timestamp;P1;durP1;ratioP1;P2;durP2;ratioP2
1320;SDS011;653;51.480;11.992;2022-09-13T00:00:47;17.93;;;16.37;;
1320;SDS011;653;51.480;11.992;2022-09-13T00:03:14;19.20;;;17.30;;
1320;SDS011;653;51.480;11.992;2022-09-13T00:05:39;20.30;;;18.40;;
1320;SDS011;653;51.480;11.992;2022-09-13T00:08:05;18.10;;;16.33;;
1320;SDS011;653;51.480;11.992;2022-09-13T00:10:35;18.40;;;16.70;;
1320;SDS011;653;51.480;11.992;2022-09-13T00:13:04;19.30;;;17.50;;
1320;SDS011;653;51.480;11.992;2022-09-13T00:15:30;19.60;;;17.70;;
1320;SDS011;653;51.480;11.992;2022-09-13T00:17:56;18.43;;;16.63;;
1320;SDS011;653;51.480;11.992;2022-09-13T00:20:22;18.70;;;17.00;;
1320;SDS011;653;51.480;11.992;2022-09-13T00:22:48;19.17;;;17.23;;
1320;SDS011;653;51.480;11.992;2022-09-13T00:25:13;18.43;;;16.53;;
1320;SDS011;653;51.480;11.992;2022-09-13T00:27:40;18.27;;;16.57;;
1320;SDS011;653;51.480;11.992;2022-09-13T00:30:07;18.73;;;17.03;;
1320;SDS011;653;51.480;11.992;2022-09-13T00:32:33;18.27;;;16.50;;
1320;SDS011;653;51.480;11.992;2022-09-13T00:35:00;17.70;;;16.10;;
1320;SDS011;653;51.480;11.992;2022-09-13T00:37:26;17.87;;;16.20;;
1320;SDS011;653;51.480;11.992;2022-09-13T00:39:51;18.00;;;16.30;;
1320;SDS011;653;51.480;11.992;2022-09-13T00:42:16;17.80;;;16.00;;
1320;SDS011;653;51.480;11.992;2022-09-13T00:50:31;17.97;;;16.10;;
1320;SDS011;653;51.480;11.992;2022-09-13T00:53:10;19.47;;;17.60;;
1320;SDS011;653;51.480;11.992;2022-09-13T00:55:55;18.10;;;16.00;;
1320;SDS011;653;51.480;11.992;2022-09-13T00:58:24;18.67;;;16.97;;
1320;SDS011;653;51.480;11.992;2022-09-13T01:00:52;20.17;;;18.10;;
1320;SDS011;653;51.480;11.992;2022-09-13T01:03:20;19.43;;;16.20;;
1320;SDS011;653;51.480;11.992;2022-09-13T01:05:55;17.57;;;15.97;;
1320;SDS011;653;51.480;11.992;2022-09-13T01:08:23;18.87;;;16.07;;
1320;SDS011;653;51.480;11.992;2022-09-13T01:10:49;18.40;;;15.70;;
1320;SDS011;653;51.480;11.992;2022-09-13T01:13:20;17.33;;;15.57;;
1320;SDS011;653;51.480;11.992;2022-09-13T01:15:47;17.07;;;15.47;;
1320;SDS011;653;51.480;11.992;2022-09-13T01:18:13;18.23;;;15.10;;
1320;SDS011;653;51.480;11.992;2022-09-13T01:24:10;19.33;;;14.90;;
1320;SDS011;653;51.480;11.992;2022-09-13T01:35:29;17.70;;;15.90;;
1320;SDS011;653;51.480;11.992;2022-09-13T01:37:58;17.23;;;15.43;;
1320;SDS011;653;51.480;11.992;2022-09-13T01:40:55;17.63;;;15.87;;
1320;SDS011;653;51.480;11.992;2022-09-13T01:43:28;19.30;;;16.70;;
1320;SDS011;653;51.480;11.992;2022-09-13T01:52:34;18.43;;;16.20;;
1320;SDS011;653;51.480;11.992;2022-09-13T01:55:07;20.20;;;17.10;;
1320;SDS011;653;51.480;11.992;2022-09-13T02:03:36;18.03;;;16.30;;
1320;SDS011;653;51.480;11.992;2022-09-13T02:06:07;17.50;;;15.80;;
1320;SDS011;653;51.480;11.992;2022-09-13T02:08:38;18.23;;;16.30;;
1320;SDS011;653;51.480;11.992;2022-09-13T02:11:16;17.73;;;15.80;;
1320;SDS011;653;51.480;11.992;2022-09-13T02:13:47;17.00;;;15.30;;
1320;SDS011;653;51.480;11.992;2022-09-13T02:16:17;18.90;;;16.83;;
1320;SDS011;653;51.480;11.992;2022-09-13T02:18:55;18.53;;;16.50;;
1320;SDS011;653;51.480;11.992;2022-09-13T02:21:28;19.40;;;17.40;;
1320;SDS011;653;51.480;11.992;2022-09-13T02:24:02;20.00;;;17.87;;
1320;SDS011;653;51.480;11.992;2022-09-13T02:26:32;20.40;;;16.80;;
1320;SDS011;653;51.480;11.992;2022-09-13T02:29:04;20.23;;;18.23;;
1320;SDS011;653;51.480;11.992;2022-09-13T02:31:56;20.50;;;18.40;;
1320;SDS011;653;51.480;11.992;2022-09-13T02:34:48;21.93;;;19.37;;
1320;SDS011;653;51.480;11.992;2022-09-13T02:37:23;19.03;;;17.27;;
1320;SDS011;653;51.480;11.992;2022-09-13T02:39:53;18.80;;;16.90;;
1320;SDS011;653;51.480;11.992;2022-09-13T02:42:44;21.40;;;17.50;;
1320;SDS011;653;51.480;11.992;2022-09-13T02:45:10;20.97;;;17.87;;
1320;SDS011;653;51.480;11.992;2022-09-13T02:47:48;18.93;;;17.07;;
1320;SDS011;653;51.480;11.992;2022-09-13T02:55:50;18.47;;;16.30;;
1320;SDS011;653;51.480;11.992;2022-09-13T03:01:02;19.60;;;16.33;;
1320;SDS011;653;51.480;11.992;2022-09-13T03:03:28;22.40;;;17.30;;
1320;SDS011;653;51.480;11.992;2022-09-13T03:05:53;18.97;;;16.77;;
1320;SDS011;653;51.480;11.992;2022-09-13T03:08:20;18.17;;;16.37;;
1320;SDS011;653;51.480;11.992;2022-09-13T03:16:29;19.07;;;16.50;;
1320;SDS011;653;51.480;11.992;2022-09-13T03:22:26;19.50;;;15.90;;
1320;SDS011;653;51.480;11.992;2022-09-13T03:30:28;18.30;;;15.13;;
1320;SDS011;653;51.480;11.992;2022-09-13T03:33:11;15.60;;;13.97;;
1320;SDS011;653;51.480;11.992;2022-09-13T03:39:05;16.07;;;14.37;;
1320;SDS011;653;51.480;11.992;2022-09-13T03:41:26;17.57;;;14.13;;
1320;SDS011;653;51.480;11.992;2022-09-13T03:43:56;18.37;;;16.17;;
1320;SDS011;653;51.480;11.992;2022-09-13T03:46:37;19.80;;;17.60;;
1320;SDS011;653;51.480;11.992;2022-09-13T03:49:07;18.50;;;16.10;;
1320;SDS011;653;51.480;11.992;2022-09-13T03:51:38;22.83;;;18.60;;
1320;SDS011;653;51.480;11.992;2022-09-13T03:54:14;20.57;;;17.07;;
1320;SDS011;653;51.480;11.992;2022-09-13T03:56:42;22.80;;;17.70;;
1320;SDS011;653;51.480;11.992;2022-09-13T03:59:08;24.63;;;20.63;;
1320;SDS011;653;51.480;11.992;2022-09-13T04:01:33;24.17;;;20.37;;
1320;SDS011;653;51.480;11.992;2022-09-13T04:03:59;24.77;;;21.47;;
1320;SDS011;653;51.480;11.992;2022-09-13T04:06:24;25.87;;;22.33;;
1320;SDS011;653;51.480;11.992;2022-09-13T04:08:50;22.33;;;20.03;;
1320;SDS011;653;51.480;11.992;2022-09-13T04:11:15;24.53;;;21.30;;
1320;SDS011;653;51.480;11.992;2022-09-13T04:13:41;24.00;;;20.27;;
1320;SDS011;653;51.480;11.992;2022-09-13T04:16:07;21.73;;;19.30;;
1320;SDS011;653;51.480;11.992;2022-09-13T04:18:33;24.93;;;22.13;;
1320;SDS011;653;51.480;11.992;2022-09-13T04:21:00;25.47;;;22.57;;
1320;SDS011;653;51.480;11.992;2022-09-13T04:23:26;23.37;;;20.67;;
1320;SDS011;653;51.480;11.992;2022-09-13T04:25:53;27.27;;;22.83;;
1320;SDS011;653;51.480;11.992;2022-09-13T04:28:19;25.43;;;21.30;;
1320;SDS011;653;51.480;11.992;2022-09-13T04:30:46;25.53;;;21.70;;
1320;SDS011;653;51.480;11.992;2022-09-13T04:33:14;22.87;;;20.50;;
1320;SDS011;653;51.480;11.992;2022-09-13T04:35:41;22.27;;;19.87;;
1320;SDS011;653;51.480;11.992;2022-09-13T04:38:07;26.63;;;20.60;;
1320;SDS011;653;51.480;11.992;2022-09-13T04:40:33;25.90;;;21.70;;
1320;SDS011;653;51.480;11.992;2022-09-13T04:43:02;26.93;;;23.97;;
1320;SDS011;653;51.480;11.992;2022-09-13T04:45:27;25.43;;;21.80;;
1320;SDS011;653;51.480;11.992;2022-09-13T04:47:55;25.83;;;20.30;;
1320;SDS011;653;51.480;11.992;2022-09-13T04:50:22;21.70;;;19.37;;
1320;SDS011;653;51.480;11.992;2022-09-13T04:52:48;23.83;;;19.63;;
1320;SDS011;653;51.480;11.992;2022-09-13T04:55:15;24.37;;;18.27;;
1320;SDS011;653;51.480;11.992;2022-09-13T04:57:40;22.70;;;17.97;;
1320;SDS011;653;51.480;11.992;2022-09-13T05:00:06;22.47;;;17.90;;
1320;SDS011;653;51.480;11.992;2022-09-13T05:02:33;17.77;;;15.23;;
1320;SDS011;653;51.480;11.992;2022-09-13T05:04:58;18.63;;;15.00;;
1320;SDS011;653;51.480;11.992;2022-09-13T05:07:25;18.87;;;14.30;;
1320;SDS011;653;51.480;11.992;2022-09-13T05:09:52;16.53;;;14.53;;
1320;SDS011;653;51.480;11.992;2022-09-13T05:12:18;15.13;;;13.63;;
1320;SDS011;653;51.480;11.992;2022-09-13T05:14:46;18.37;;;14.00;;
1320;SDS011;653;51.480;11.992;2022-09-13T05:17:13;15.47;;;12.47;;
1320;SDS011;653;51.480;11.992;2022-09-13T05:19:38;16.03;;;12.40;;
1320;SDS011;653;51.480;11.992;2022-09-13T05:22:04;14.30;;;12.80;;
1320;SDS011;653;51.480;11.992;2022-09-13T05:24:29;14.13;;;12.40;;
1320;SDS011;653;51.480;11.992;2022-09-13T05:26:56;16.10;;;11.57;;
1320;SDS011;653;51.480;11.992;2022-09-13T05:29:23;13.03;;;11.73;;
1320;SDS011;653;51.480;11.992;2022-09-13T05:31:48;12.20;;;10.90;;
1320;SDS011;653;51.480;11.992;2022-09-13T05:34:15;13.00;;;11.10;;
1320;SDS011;653;51.480;11.992;2022-09-13T05:36:45;18.33;;;12.57;;
1320;SDS011;653;51.480;11.992;2022-09-13T05:39:13;13.03;;;10.80;;
1320;SDS011;653;51.480;11.992;2022-09-13T05:41:39;14.00;;;11.13;;
1320;SDS011;653;51.480;11.992;2022-09-13T05:44:05;13.60;;;11.93;;
1320;SDS011;653;51.480;11.992;2022-09-13T05:46:30;10.93;;;9.90;;
1320;SDS011;653;51.480;11.992;2022-09-13T05:48:56;11.37;;;10.17;;
1320;SDS011;653;51.480;11.992;2022-09-13T05:51:22;10.87;;;9.83;;
1320;SDS011;653;51.480;11.992;2022-09-13T05:53:48;12.17;;;9.87;;
1320;SDS011;653;51.480;11.992;2022-09-13T05:56:17;12.00;;;9.83;;
1320;SDS011;653;51.480;11.992;2022-09-13T05:58:45;10.43;;;8.77;;
1320;SDS011;653;51.480;11.992;2022-09-13T06:01:16;12.07;;;9.37;;
1320;SDS011;653;51.480;11.992;2022-09-13T06:03:47;14.23;;;10.30;;
1320;SDS011;653;51.480;11.992;2022-09-13T06:06:19;14.03;;;10.87;;
1320;SDS011;653;51.480;11.992;2022-09-13T06:08:44;13.67;;;10.63;;
1320;SDS011;653;51.480;11.992;2022-09-13T06:11:11;16.70;;;12.50;;
1320;SDS011;653;51.480;11.992;2022-09-13T06:13:37;16.10;;;11.53;;
1320;SDS011;653;51.480;11.992;2022-09-13T06:16:10;12.97;;;11.57;;
1320;SDS011;653;51.480;11.992;2022-09-13T06:18:37;12.33;;;10.50;;
1320;SDS011;653;51.480;11.992;2022-09-13T06:21:03;14.57;;;10.70;;
1320;SDS011;653;51.480;11.992;2022-09-13T06:23:41;12.40;;;11.20;;
1320;SDS011;653;51.480;11.992;2022-09-13T06:26:08;13.87;;;11.93;;
1320;SDS011;653;51.480;11.992;2022-09-13T06:28:35;14.50;;;11.70;;
1320;SDS011;653;51.480;11.992;2022-09-13T06:31:05;14.20;;;12.30;;
1320;SDS011;653;51.480;11.992;2022-09-13T06:33:33;13.10;;;10.40;;
1320;SDS011;653;51.480;11.992;2022-09-13T06:36:00;12.70;;;11.27;;
1320;SDS011;653;51.480;11.992;2022-09-13T06:38:26;11.83;;;10.63;;
1320;SDS011;653;51.480;11.992;2022-09-13T06:41:02;12.67;;;11.37;;
1320;SDS011;653;51.480;11.992;2022-09-13T06:43:28;11.80;;;9.97;;
1320;SDS011;653;51.480;11.992;2022-09-13T06:45:58;16.67;;;11.50;;
1320;SDS011;653;51.480;11.992;2022-09-13T06:48:24;14.73;;;11.23;;
1320;SDS011;653;51.480;11.992;2022-09-13T06:50:50;15.83;;;12.80;;
1320;SDS011;653;51.480;11.992;2022-09-13T06:53:15;15.50;;;11.17;;
1320;SDS011;653;51.480;11.992;2022-09-13T06:55:41;13.70;;;12.23;;
1320;SDS011;653;51.480;11.992;2022-09-13T06:58:07;15.93;;;12.00;;
1320;SDS011;653;51.480;11.992;2022-09-13T07:00:32;12.93;;;11.63;;
1320;SDS011;653;51.480;11.992;2022-09-13T07:02:59;13.57;;;10.20;;
1320;SDS011;653;51.480;11.992;2022-09-13T07:05:26;13.07;;;11.17;;
1320;SDS011;653;51.480;11.992;2022-09-13T07:07:54;13.03;;;11.30;;
1320;SDS011;653;51.480;11.992;2022-09-13T07:10:20;15.00;;;13.40;;
1320;SDS011;653;51.480;11.992;2022-09-13T07:12:46;18.10;;;14.27;;
1320;SDS011;653;51.480;11.992;2022-09-13T07:15:12;23.37;;;14.63;;
1320;SDS011;653;51.480;11.992;2022-09-13T07:17:39;15.80;;;14.10;;
1320;SDS011;653;51.480;11.992;2022-09-13T07:20:04;21.40;;;15.67;;
1320;SDS011;653;51.480;11.992;2022-09-13T07:22:31;16.50;;;13.37;;
1320;SDS011;653;51.480;11.992;2022-09-13T07:24:57;15.73;;;14.03;;
1320;SDS011;653;51.480;11.992;2022-09-13T07:27:22;17.63;;;15.13;;
1320;SDS011;653;51.480;11.992;2022-09-13T07:29:48;14.57;;;12.00;;
1320;SDS011;653;51.480;11.992;2022-09-13T07:32:13;19.03;;;14.40;;
1320;SDS011;653;51.480;11.992;2022-09-13T07:34:39;15.87;;;12.23;;
1320;SDS011;653;51.480;11.992;2022-09-13T07:37:05;24.20;;;13.40;;
1320;SDS011;653;51.480;11.992;2022-09-13T07:39:32;15.83;;;12.40;;
1320;SDS011;653;51.480;11.992;2022-09-13T07:42:00;14.03;;;11.53;;
1320;SDS011;653;51.480;11.992;2022-09-13T07:44:26;15.10;;;12.40;;
1320;SDS011;653;51.480;11.992;2022-09-13T07:46:51;18.10;;;13.27;;
1320;SDS011;653;51.480;11.992;2022-09-13T07:49:17;17.87;;;16.17;;
1320;SDS011;653;51.480;11.992;2022-09-13T07:51:43;23.77;;;19.77;;
1320;SDS011;653;51.480;11.992;2022-09-13T07:54:15;21.60;;;19.60;;
1320;SDS011;653;51.480;11.992;2022-09-13T07:56:43;22.93;;;21.00;;
1320;SDS011;653;51.480;11.992;2022-09-13T07:59:10;12.30;;;11.20;;
1320;SDS011;653;51.480;11.992;2022-09-13T08:01:48;10.80;;;9.23;;
1320;SDS011;653;51.480;11.992;2022-09-13T08:04:24;9.93;;;9.00;;
1320;SDS011;653;51.480;11.992;2022-09-13T08:06:50;10.70;;;9.70;;
1320;SDS011;653;51.480;11.992;2022-09-13T08:09:16;10.50;;;9.40;;
1320;SDS011;653;51.480;11.992;2022-09-13T08:11:43;8.27;;;7.40;;
1320;SDS011;653;51.480;11.992;2022-09-13T08:14:11;9.00;;;8.10;;
1320;SDS011;653;51.480;11.992;2022-09-13T08:16:40;8.20;;;7.47;;
1320;SDS011;653;51.480;11.992;2022-09-13T08:19:06;8.10;;;7.30;;
1320;SDS011;653;51.480;11.992;2022-09-13T08:21:36;10.40;;;8.03;;
1320;SDS011;653;51.480;11.992;2022-09-13T08:24:03;14.20;;;8.03;;
1320;SDS011;653;51.480;11.992;2022-09-13T08:26:31;8.00;;;7.27;;
1320;SDS011;653;51.480;11.992;2022-09-13T08:28:58;10.50;;;7.40;;
1320;SDS011;653;51.480;11.992;2022-09-13T08:31:25;9.00;;;8.10;;
1320;SDS011;653;51.480;11.992;2022-09-13T08:33:51;9.10;;;8.30;;
1320;SDS011;653;51.480;11.992;2022-09-13T08:36:17;9.23;;;7.97;;
1320;SDS011;653;51.480;11.992;2022-09-13T08:38:47;8.23;;;7.40;;
1320;SDS011;653;51.480;11.992;2022-09-13T08:46:56;10.13;;;9.00;;
1320;SDS011;653;51.480;11.992;2022-09-13T08:49:36;8.67;;;7.80;;
1320;SDS011;653;51.480;11.992;2022-09-13T08:54:39;7.90;;;7.13;;
1320;SDS011;653;51.480;11.992;2022-09-13T08:57:19;9.10;;;7.97;;
1320;SDS011;653;51.480;11.992;2022-09-13T09:00:09;10.03;;;7.87;;
1320;SDS011;653;51.480;11.992;2022-09-13T09:05:30;11.73;;;6.93;;
1320;SDS011;653;51.480;11.992;2022-09-13T09:10:32;9.30;;;7.23;;
1320;SDS011;653;51.480;11.992;2022-09-13T09:13:14;8.20;;;7.40;;
1320;SDS011;653;51.480;11.992;2022-09-13T09:15:54;8.30;;;7.07;;
1320;SDS011;653;51.480;11.992;2022-09-13T09:20:58;8.60;;;7.80;;
1320;SDS011;653;51.480;11.992;2022-09-13T09:23:30;8.47;;;7.67;;
1320;SDS011;653;51.480;11.992;2022-09-13T09:26:16;6.70;;;6.00;;
1320;SDS011;653;51.480;11.992;2022-09-13T09:28:49;9.23;;;6.97;;
1320;SDS011;653;51.480;11.992;2022-09-13T09:31:38;7.47;;;6.60;;
1320;SDS011;653;51.480;11.992;2022-09-13T09:34:40;7.90;;;7.10;;
1320;SDS011;653;51.480;11.992;2022-09-13T09:37:21;6.77;;;6.17;;
1320;SDS011;653;51.480;11.992;2022-09-13T09:39:53;6.70;;;6.10;;
1320;SDS011;653;51.480;11.992;2022-09-13T09:42:27;6.30;;;5.80;;
1320;SDS011;653;51.480;11.992;2022-09-13T09:44:55;7.70;;;6.70;;
1320;SDS011;653;51.480;11.992;2022-09-13T09:47:26;7.47;;;5.97;;
1320;SDS011;653;51.480;11.992;2022-09-13T09:49:54;7.00;;;6.30;;
1320;SDS011;653;51.480;11.992;2022-09-13T10:00:26;7.37;;;6.70;;
1320;SDS011;653;51.480;11.992;2022-09-13T10:02:58;6.10;;;5.57;;
1320;SDS011;653;51.480;11.992;2022-09-13T10:05:25;10.00;;;6.33;;
1320;SDS011;653;51.480;11.992;2022-09-13T10:07:52;6.87;;;6.23;;
1320;SDS011;653;51.480;11.992;2022-09-13T10:10:28;7.67;;;6.00;;
1320;SDS011;653;51.480;11.992;2022-09-13T10:13:02;7.53;;;6.63;;
1320;SDS011;653;51.480;11.992;2022-09-13T10:15:29;6.20;;;5.60;;
1320;SDS011;653;51.480;11.992;2022-09-13T10:17:59;6.77;;;6.27;;
1320;SDS011;653;51.480;11.992;2022-09-13T10:20:26;6.30;;;5.80;;
1320;SDS011;653;51.480;11.992;2022-09-13T10:23:09;6.10;;;5.50;;
1320;SDS011;653;51.480;11.992;2022-09-13T10:25:36;7.37;;;6.23;;
1320;SDS011;653;51.480;11.992;2022-09-13T10:28:03;6.17;;;5.57;;
1320;SDS011;653;51.480;11.992;2022-09-13T10:30:30;6.00;;;5.40;;
1320;SDS011;653;51.480;11.992;2022-09-13T10:32:57;6.67;;;5.83;;
1320;SDS011;653;51.480;11.992;2022-09-13T10:35:24;6.13;;;5.63;;
1320;SDS011;653;51.480;11.992;2022-09-13T10:37:51;6.47;;;5.97;;
1320;SDS011;653;51.480;11.992;2022-09-13T10:40:19;6.77;;;6.10;;
1320;SDS011;653;51.480;11.992;2022-09-13T10:42:55;6.20;;;5.60;;
1320;SDS011;653;51.480;11.992;2022-09-13T10:45:23;7.63;;;5.90;;
1320;SDS011;653;51.480;11.992;2022-09-13T10:47:50;6.90;;;6.10;;
1320;SDS011;653;51.480;11.992;2022-09-13T10:52:52;5.80;;;5.30;;
1320;SDS011;653;51.480;11.992;2022-09-13T10:57:48;6.73;;;6.03;;
1320;SDS011;653;51.480;11.992;2022-09-13T11:00:19;7.50;;;6.60;;
1320;SDS011;653;51.480;11.992;2022-09-13T11:05:47;5.87;;;5.27;;
1320;SDS011;653;51.480;11.992;2022-09-13T11:08:55;6.40;;;5.80;;
1320;SDS011;653;51.480;11.992;2022-09-13T11:11:55;5.83;;;5.20;;
1320;SDS011;653;51.480;11.992;2022-09-13T11:20:29;8.70;;;5.00;;
1320;SDS011;653;51.480;11.992;2022-09-13T11:42:01;7.13;;;4.30;;
1320;SDS011;653;51.480;11.992;2022-09-13T11:44:55;8.03;;;4.97;;
1320;SDS011;653;51.480;11.992;2022-09-13T11:50:15;6.27;;;5.03;;
1320;SDS011;653;51.480;11.992;2022-09-13T11:55:43;6.93;;;4.50;;
1320;SDS011;653;51.480;11.992;2022-09-13T11:58:22;4.70;;;4.30;;
1320;SDS011;653;51.480;11.992;2022-09-13T12:01:04;4.93;;;4.43;;
1320;SDS011;653;51.480;11.992;2022-09-13T12:03:43;7.93;;;4.57;;
1320;SDS011;653;51.480;11.992;2022-09-13T12:06:16;5.53;;;5.03;;
1320;SDS011;653;51.480;11.992;2022-09-13T12:08:45;5.30;;;4.80;;
1320;SDS011;653;51.480;11.992;2022-09-13T12:11:24;6.87;;;4.83;;
1320;SDS011;653;51.480;11.992;2022-09-13T12:13:56;5.83;;;5.23;;
1320;SDS011;653;51.480;11.992;2022-09-13T12:16:40;5.70;;;5.20;;
1320;SDS011;653;51.480;11.992;2022-09-13T12:21:54;5.37;;;4.87;;
1320;SDS011;653;51.480;11.992;2022-09-13T12:30:14;5.47;;;4.97;;
1320;SDS011;653;51.480;11.992;2022-09-13T12:32:44;5.50;;;4.10;;
1320;SDS011;653;51.480;11.992;2022-09-13T12:35:23;7.20;;;4.77;;
1320;SDS011;653;51.480;11.992;2022-09-13T12:44:30;5.70;;;5.10;;
1320;SDS011;653;51.480;11.992;2022-09-13T12:50:29;5.70;;;3.97;;
1320;SDS011;653;51.480;11.992;2022-09-13T12:55:59;7.50;;;4.70;;
1320;SDS011;653;51.480;11.992;2022-09-13T13:01:27;5.83;;;5.13;;
1320;SDS011;653;51.480;11.992;2022-09-13T13:06:38;8.83;;;4.90;;
1320;SDS011;653;51.480;11.992;2022-09-13T13:11:46;5.13;;;4.63;;
1320;SDS011;653;51.480;11.992;2022-09-13T13:31:07;5.53;;;5.03;;
1320;SDS011;653;51.480;11.992;2022-09-13T13:36:42;4.70;;;4.27;;
1320;SDS011;653;51.480;11.992;2022-09-13T13:41:48;4.70;;;4.30;;
1320;SDS011;653;51.480;11.992;2022-09-13T13:46:43;4.90;;;4.33;;
1320;SDS011;653;51.480;11.992;2022-09-13T14:00:16;5.50;;;4.87;;
1320;SDS011;653;51.480;11.992;2022-09-13T14:14:00;4.87;;;4.43;;
1320;SDS011;653;51.480;11.992;2022-09-13T14:16:43;4.67;;;4.37;;
1320;SDS011;653;51.480;11.992;2022-09-13T14:19:22;4.60;;;4.20;;
1320;SDS011;653;51.480;11.992;2022-09-13T14:24:49;5.50;;;5.00;;
1320;SDS011;653;51.480;11.992;2022-09-13T14:29:55;8.83;;;7.00;;
1320;SDS011;653;51.480;11.992;2022-09-13T14:32:28;6.67;;;6.10;;
1320;SDS011;653;51.480;11.992;2022-09-13T14:35:06;8.27;;;7.47;;
1320;SDS011;653;51.480;11.992;2022-09-13T14:37:49;7.70;;;7.00;;
1320;SDS011;653;51.480;11.992;2022-09-13T14:40:19;8.07;;;6.53;;
1320;SDS011;653;51.480;11.992;2022-09-13T14:42:48;8.10;;;6.20;;
1320;SDS011;653;51.480;11.992;2022-09-13T14:45:19;7.60;;;6.20;;
1320;SDS011;653;51.480;11.992;2022-09-13T14:48:08;7.70;;;6.93;;
1320;SDS011;653;51.480;11.992;2022-09-13T14:50:41;8.50;;;6.27;;
1320;SDS011;653;51.480;11.992;2022-09-13T14:53:26;7.70;;;7.00;;
1320;SDS011;653;51.480;11.992;2022-09-13T14:56:20;6.50;;;5.50;;
1320;SDS011;653;51.480;11.992;2022-09-13T14:58:52;6.33;;;5.73;;
1320;SDS011;653;51.480;11.992;2022-09-13T15:01:25;7.10;;;6.43;;
1320;SDS011;653;51.480;11.992;2022-09-13T15:03:54;8.37;;;7.07;;
1320;SDS011;653;51.480;11.992;2022-09-13T15:06:25;9.50;;;6.97;;
1320;SDS011;653;51.480;11.992;2022-09-13T15:11:34;11.00;;;6.93;;
1320;SDS011;653;51.480;11.992;2022-09-13T15:14:02;7.00;;;5.70;;
1320;SDS011;653;51.480;11.992;2022-09-13T15:16:57;8.97;;;7.33;;
1320;SDS011;653;51.480;11.992;2022-09-13T15:19:29;9.40;;;6.60;;
1320;SDS011;653;51.480;11.992;2022-09-13T15:22:03;7.60;;;6.40;;
1320;SDS011;653;51.480;11.992;2022-09-13T15:24:33;7.37;;;6.70;;
1320;SDS011;653;51.480;11.992;2022-09-13T15:27:18;9.63;;;6.93;;
1320;SDS011;653;51.480;11.992;2022-09-13T15:29:49;11.53;;;8.20;;
1320;SDS011;653;51.480;11.992;2022-09-13T15:32:20;10.80;;;7.20;;
1320;SDS011;653;51.480;11.992;2022-09-13T15:34:47;8.43;;;6.97;;
1320;SDS011;653;51.480;11.992;2022-09-13T15:37:14;7.60;;;6.90;;
1320;SDS011;653;51.480;11.992;2022-09-13T15:40:00;7.30;;;6.70;;
1320;SDS011;653;51.480;11.992;2022-09-13T15:42:49;7.80;;;6.53;;
1320;SDS011;653;51.480;11.992;2022-09-13T15:45:19;8.07;;;6.70;;
1320;SDS011;653;51.480;11.992;2022-09-13T15:47:47;9.17;;;7.17;;
1320;SDS011;653;51.480;11.992;2022-09-13T15:50:17;8.80;;;6.67;;
1320;SDS011;653;51.480;11.992;2022-09-13T15:52:44;7.00;;;6.27;;
1320;SDS011;653;51.480;11.992;2022-09-13T15:55:10;7.30;;;6.17;;
1320;SDS011;653;51.480;11.992;2022-09-13T15:57:37;8.83;;;6.80;;
1320;SDS011;653;51.480;11.992;2022-09-13T16:00:02;6.77;;;6.17;;
1320;SDS011;653;51.480;11.992;2022-09-13T16:02:31;10.43;;;7.50;;
1320;SDS011;653;51.480;11.992;2022-09-13T16:04:57;10.10;;;8.27;;
1320;SDS011;653;51.480;11.992;2022-09-13T16:07:23;10.03;;;8.10;;
1320;SDS011;653;51.480;11.992;2022-09-13T16:09:50;11.00;;;9.67;;
1320;SDS011;653;51.480;11.992;2022-09-13T16:12:15;10.17;;;8.50;;
1320;SDS011;653;51.480;11.992;2022-09-13T16:14:43;9.80;;;8.70;;
1320;SDS011;653;51.480;11.992;2022-09-13T16:17:18;11.40;;;7.83;;
1320;SDS011;653;51.480;11.992;2022-09-13T16:19:46;9.03;;;7.57;;
1320;SDS011;653;51.480;11.992;2022-09-13T16:22:12;8.70;;;7.63;;
1320;SDS011;653;51.480;11.992;2022-09-13T16:24:38;8.80;;;7.67;;
1320;SDS011;653;51.480;11.992;2022-09-13T16:27:05;7.70;;;6.90;;
1320;SDS011;653;51.480;11.992;2022-09-13T16:29:30;15.23;;;8.53;;
1320;SDS011;653;51.480;11.992;2022-09-13T16:31:56;8.50;;;7.60;;
1320;SDS011;653;51.480;11.992;2022-09-13T16:34:24;9.03;;;8.10;;
1320;SDS011;653;51.480;11.992;2022-09-13T16:36:51;9.80;;;8.13;;
1320;SDS011;653;51.480;11.992;2022-09-13T16:39:17;9.33;;;8.17;;
1320;SDS011;653;51.480;11.992;2022-09-13T16:41:43;9.40;;;8.50;;
1320;SDS011;653;51.480;11.992;2022-09-13T16:44:08;8.80;;;7.80;;
1320;SDS011;653;51.480;11.992;2022-09-13T16:46:35;9.23;;;8.33;;
1320;SDS011;653;51.480;11.992;2022-09-13T16:49:01;9.30;;;8.30;;
1320;SDS011;653;51.480;11.992;2022-09-13T16:51:26;9.57;;;8.40;;
1320;SDS011;653;51.480;11.992;2022-09-13T16:53:52;9.40;;;8.40;;
1320;SDS011;653;51.480;11.992;2022-09-13T16:56:18;9.50;;;8.50;;
1320;SDS011;653;51.480;11.992;2022-09-13T16:58:46;10.33;;;9.33;;
1320;SDS011;653;51.480;11.992;2022-09-13T17:01:15;11.30;;;9.90;;
1320;SDS011;653;51.480;11.992;2022-09-13T17:03:42;11.43;;;10.20;;
1320;SDS011;653;51.480;11.992;2022-09-13T17:06:08;11.77;;;8.83;;
1320;SDS011;653;51.480;11.992;2022-09-13T17:08:36;9.83;;;8.83;;
1320;SDS011;653;51.480;11.992;2022-09-13T17:11:07;9.37;;;8.47;;
1320;SDS011;653;51.480;11.992;2022-09-13T17:13:38;8.93;;;8.03;;
1320;SDS011;653;51.480;11.992;2022-09-13T17:16:05;11.37;;;8.90;;
1320;SDS011;653;51.480;11.992;2022-09-13T17:18:33;17.13;;;9.00;;
1320;SDS011;653;51.480;11.992;2022-09-13T17:20:59;9.57;;;7.77;;
1320;SDS011;653;51.480;11.992;2022-09-13T17:23:24;10.27;;;8.47;;
1320;SDS011;653;51.480;11.992;2022-09-13T17:25:50;9.20;;;8.30;;
1320;SDS011;653;51.480;11.992;2022-09-13T17:28:16;8.00;;;7.20;;
1320;SDS011;653;51.480;11.992;2022-09-13T17:30:43;8.47;;;7.60;;
1320;SDS011;653;51.480;11.992;2022-09-13T17:33:10;8.13;;;7.33;;
1320;SDS011;653;51.480;11.992;2022-09-13T17:35:36;8.30;;;7.50;;
1320;SDS011;653;51.480;11.992;2022-09-13T17:38:02;8.97;;;7.37;;
1320;SDS011;653;51.480;11.992;2022-09-13T17:40:28;7.47;;;6.77;;
1320;SDS011;653;51.480;11.992;2022-09-13T17:42:54;8.87;;;7.30;;
1320;SDS011;653;51.480;11.992;2022-09-13T17:45:20;9.00;;;7.50;;
1320;SDS011;653;51.480;11.992;2022-09-13T17:47:46;10.23;;;7.10;;
1320;SDS011;653;51.480;11.992;2022-09-13T17:50:12;8.77;;;7.27;;
1320;SDS011;653;51.480;11.992;2022-09-13T17:52:38;9.53;;;6.80;;
1320;SDS011;653;51.480;11.992;2022-09-13T17:55:04;10.27;;;8.77;;
1320;SDS011;653;51.480;11.992;2022-09-13T17:57:31;10.97;;;7.37;;
1320;SDS011;653;51.480;11.992;2022-09-13T17:59:57;7.37;;;6.67;;
1320;SDS011;653;51.480;11.992;2022-09-13T18:02:22;9.90;;;8.20;;
1320;SDS011;653;51.480;11.992;2022-09-13T18:04:48;9.27;;;6.47;;
1320;SDS011;653;51.480;11.992;2022-09-13T18:07:15;9.90;;;5.80;;
1320;SDS011;653;51.480;11.992;2022-09-13T18:09:40;9.37;;;8.20;;
1320;SDS011;653;51.480;11.992;2022-09-13T18:12:06;9.27;;;7.80;;
1320;SDS011;653;51.480;11.992;2022-09-13T18:14:31;14.07;;;12.67;;
1320;SDS011;653;51.480;11.992;2022-09-13T18:16:58;17.87;;;9.30;;
1320;SDS011;653;51.480;11.992;2022-09-13T18:19:23;9.87;;;8.50;;
1320;SDS011;653;51.480;11.992;2022-09-13T18:21:50;11.70;;;7.97;;
1320;SDS011;653;51.480;11.992;2022-09-13T18:24:15;10.37;;;8.20;;
1320;SDS011;653;51.480;11.992;2022-09-13T18:26:41;9.40;;;8.40;;
1320;SDS011;653;51.480;11.992;2022-09-13T18:29:10;12.03;;;9.20;;
1320;SDS011;653;51.480;11.992;2022-09-13T18:31:38;10.80;;;8.93;;
1320;SDS011;653;51.480;11.992;2022-09-13T18:34:05;9.43;;;8.10;;
1320;SDS011;653;51.480;11.992;2022-09-13T18:36:32;12.23;;;9.00;;
1320;SDS011;653;51.480;11.992;2022-09-13T18:39:01;10.23;;;9.20;;
1320;SDS011;653;51.480;11.992;2022-09-13T18:41:30;8.67;;;7.80;;